Main page
METAR-TAF:

METAR-TAF

Airports :

Seneca Emergency Airstrip

Seneca, Oregon, United States

latitude: 44-08-18N, longitude: 118-58-54W, elevation: 4664 ft

Current weather observation

The report was made 42 minutes ago, at 01:55 UTC
Wind 17 mph from the Northwest with gusts up to 22 mph
Temperature 82°F
Humidity 22%
Pressure 29.92 in. Hg
Visibility: 10 miles
Clear sky

METAR: KGCD 240155Z AUTO 32015G19KT 10SM CLR 28/04 A2992 RMK AO2 T02750038

Time: 19:37 (02:37 UTC)


TAF: missing

Weather observations and forecasts of more than 4000 airports (METAR and TAF reports).

The available stations are represented by yellow and red dots on the map.

Hover mouse over dot to see the name of the station.

Then click to see weather observations and forecasts.

To change the map : click on the green buttons with a black cross to zoom in, on the green button with a dash to zoom out, or on the green arrows for adjacent maps.


METAR-TAF: